עמוד ראשי
METAR-TAF:

METAR-TAF

שדות תעופה :

Manta, אקוודור

קו רוחב: 00-57S, קו אורך: 080-41W, גובה: 13מטר

תצפית מזג אוויר נוכחית

הדו"ח נערך לפני 1 שעות ו 4דקות, בשעה 10:00 UTC
רוח 3קשר מכיוון מזרח/דרום-מזרח
טמפרטורת 26 צלסיוס
לחות 84%
לחץ 1007 hPa
ראות 10 קילומטר או יותר
עננים בינוניים בגובה 2000רגל

METAR: SEMT 121000Z 12003KT 9999 BKN020 26/23 Q1007 RMK A2975

זמן: 06:04 (11:04 UTC)

תחזית

הדו"ח נערך לפני 6 שעות ו 24דקות, בשעה 04:40 UTC
תחזית בתוקף מ 12 ב 06 UTC עד 13 ב 06 UTC
רוח 4קשר מכיוון צפון-מזרח
ראות 10 קילומטר או יותר
עננים בינוניים בגובה 2000רגל
יעשה מ
12 ב 09 UTC עד 12 ב 11 UTC
רוח 4קשר מכיוון מזרח
עננים פזורים בגובה 3000רגל
יעשה מ
12 ב 16 UTC עד 12 ב 18 UTC
רוח 8קשר מכיוון מערב
יעשה מ
13 ב 00 UTC עד 13 ב 02 UTC
רוח 5קשר מכיוון דרום/דרום-מערב
עננים בינוניים בגובה 2000רגל

TAF: SEMT 120440Z 1206/1306 05004KT 9999 BKN020 BECMG 1209/1211 10004KT SCT030 SCT1000 BECMG 1216/1218 27008KT BECMG 1300/1302 21005KT BKN020 TX33/1220Z TN24/1210Z

תצפיות ותחזיות מזג אוויר לגבי יותר מ- 4,000 שדות תעופה ברחבי העולם. דוחות METAR ו- TAF.

התחנות הזמינות מסומנות בנקודות צהובות ואדומות על גבי המפה.

העבר את העכבר לנקודה הצבעונית על מנת לראות את שם התחנה.

לאחר מכן, לחץ כדי לראות את תוכן ואת תחזיות מזג האוויר.

כדי לשנות את המפה: לחץ על הכפתורים הירוקים עם הפלוס השחור כדי להתקרב; על הכפתור הירוק עם המקף כדי להתרחק; או בחיצים הירוקים למפות סמוכות.


METAR-TAF: